• Join FlightAware (Why Join?)
  • Login
  • US Flag 
01:23AM EDT


 

Airport Tracker/Info


-or-


 

Live Flight TrackerFlight Track Log ✈ FLG3780 ✈ 27-Apr-2013 ✈ KALB - KDTW

Flight Track Log - Related Links

Times and Time Zones

All times are in EDT time to prevent confusion due to time zone crossing. See the FLG3780 flight status page for this flight to view local times or setup timezone preferences in your user account.

Time Position Orientation Groundspeed Altitude Reporting Facility
EDT Latitude Longitude Course Direction KTS MPH feet Rate Location/Type
09:23AM 42.7672 -73.8061 283° West 154 177 1,300  Level Boston Center
09:24AM 42.7983 -73.8294 331° Northwest 172 198 2,600 1,980 Climbing Boston Center
09:24AM 42.8292 -73.8583 326° Northwest 212 244 3,800 2,580 Climbing Boston Center
09:25AM 42.8786 -73.9022 327° Northwest 264 304 6,600 2,700 Climbing Boston Center
09:26AM 42.8090 -74.1624 281° West  Level FlightAware Approximate
09:26AM 42.9364 -73.9544 327° Northwest 264 304 9,200  Level Boston Center
09:27AM 42.8268 -74.2875 281° West  Level FlightAware Approximate
09:27AM 43.0022 -74.0186 325° Northwest 264 304 11,300  Level Boston Center
09:28AM 42.8465 -74.4122 283° West  Level FlightAware Approximate
09:29AM 43.0447 -74.1133 302° West 290 334 12,800  Level Boston Center
09:30AM 43.0528 -74.2672 274° West 319 367 14,900 1,920 Climbing Boston Center
09:31AM 43.0592 -74.3811 274° West 338 389 16,700 1,440 Climbing Boston Center
09:32AM 43.0692 -74.5233 276° West 350 403 18,100 1,260 Climbing Boston Center
09:33AM 43.0789 -74.6744 275° West 355 409 19,500 1,320 Climbing Boston Center
09:34AM 43.0864 -74.8111 274° West 361 415 20,800 1,260 Climbing Boston Center
09:35AM 43.0958 -74.9536 275° West 371 427 22,100 1,140 Climbing Boston Center
09:36AM 43.1031 -75.0933 274° West 371 427 23,100 1,020 Climbing Boston Center
09:37AM 43.1100 -75.2386 274° West 371 427 24,200 1,020 Climbing Boston Center
09:38AM 43.1189 -75.3814 275° West 371 427 25,200 780 Climbing Boston Center
09:39AM 43.1278 -75.5242 275° West 381 438 25,800 600 Climbing Boston Center
09:40AM 43.1339 -75.6753 273° West 391 450 26,500 660 Climbing Boston Center
09:41AM 43.1422 -75.8181 275° West 391 450 27,200 660 Climbing Boston Center
09:42AM 43.1503 -75.9694 274° West 391 450 27,900 240 Climbing Boston Center
09:44AM 43.1489 -76.3286 270° West 391 450 28,000  Climbing Cleveland Center
09:45AM 43.1358 -76.4861 264° West 409 471 28,000  Level Cleveland Center
09:46AM 43.1225 -76.6406 263° West 409 471 28,000  Level Cleveland Center
09:47AM 43.1106 -76.7808 263° West 414 476 28,000  Level Cleveland Center
09:48AM 43.0969 -76.9381 263° West 414 476 28,000  Level Cleveland Center
09:49AM 43.0831 -77.0981 263° West 414 476 28,000  Level Cleveland Center
09:50AM 43.0689 -77.2522 263° West 414 476 28,000  Level Cleveland Center
09:51AM 43.0544 -77.4122 263° West 419 482 28,000  Level Cleveland Center
09:52AM 43.0400 -77.5692 263° West 419 482 28,000  Level Cleveland Center
09:53AM 43.0231 -77.7261 262° West 424 488 28,000  Level Cleveland Center
09:54AM 43.0081 -77.8831 263° West 424 488 28,000  Level Cleveland Center
09:55AM 42.9931 -78.0456 263° West 429 494 28,000  Level Cleveland Center
09:56AM 42.9775 -78.2022 262° West 429 494 28,000  Level Cleveland Center
09:57AM 42.9600 -78.3592 261° West 429 494 28,000  Level Cleveland Center
09:58AM 42.9439 -78.5156 262° West 429 494 28,000  Level Cleveland Center
09:59AM 42.9258 -78.6750 261° West 429 494 28,000  Level Cleveland Center
10:00AM 42.9056 -78.8317 260° West 429 494 28,000  Level Cleveland Center
10:01AM 42.8828 -78.9908 259° West 429 494 28,000  Level Cleveland Center
10:02AM 42.8597 -79.1444 258° West 429 494 28,000  Level Cleveland Center
10:03AM 42.8408 -79.3033 261° West 429 494 28,000  Level Cleveland Center
10:04AM 42.8111 -79.4567 255° West 429 494 28,000  Level Cleveland Center
10:05AM 42.7897 -79.6128 259° West 429 494 28,000  Level Cleveland Center
10:06AM 42.7678 -79.7658 259° West 429 494 28,000  Level Cleveland Center
10:07AM 42.7500 -79.9244 261° West 429 494 28,000  Level Cleveland Center
10:08AM 42.7406 -80.0942 266° West 429 494 28,000  Level Cleveland Center
10:09AM 42.7347 -80.2525 267° West 424 488 28,000  Level Cleveland Center
10:10AM 42.7269 -80.3881 266° West 414 476 28,000  Level Cleveland Center
10:11AM 42.7208 -80.5408 267° West 406 467 28,000 -60 Level Cleveland Center
10:12AM 42.7164 -80.6819 268° West 392 451 27,900 -660 Descending Cleveland Center
10:13AM 42.7100 -80.8206 266° West 384 442 26,700 -1,200 Descending Cleveland Center
10:14AM 42.7014 -80.9589 265° West 372 428 25,500 -1,200 Descending Cleveland Center
10:15AM 42.6819 -81.0944 259° West 372 428 24,300 -1,200 Descending Cleveland Center
10:16AM 42.6667 -81.2325 261° West 372 428 23,100 -1,200 Descending Cleveland Center
10:17AM 42.6511 -81.3819 262° West 373 429 21,900 -1,080 Descending Cleveland Center
10:18AM 42.6356 -81.5172 261° West 367 422 21,000 -780 Descending Cleveland Center
10:19AM 42.6178 -81.6497 260° West 367 422 20,400 -960 Descending Cleveland Center
10:20AM 42.6019 -81.7819 261° West 367 422 19,100 -1,260 Descending Cleveland Center
10:21AM 42.5858 -81.9200 261° West 372 428 17,900 -1,140 Descending Cleveland Center
10:22AM 42.5694 -82.0606 261° West 372 428 16,900 -1,200 Descending Cleveland Center
10:23AM 42.5531 -82.1953 261° West 372 428 15,500 -1,440 Descending Cleveland Center
10:24AM 42.5389 -82.3106 261° West 340 391 14,300 -1,380 Descending Cleveland Center
10:25AM 42.5250 -82.4117 259° West 335 386 13,200 -1,260 Descending Cleveland Center
10:25AM 42.5203 -82.4453 259° West 350 403 12,900 -1,200 Descending Cleveland Center
10:26AM 42.5125 -82.5239 262° West 327 376 12,100 -900 Descending Cleveland Center
10:26AM 42.5014 -82.5631 249° West 339 390 12,000 -840 Descending Cleveland Center
10:27AM 42.4794 -82.6300 246° West 309 356 11,300 -1,140 Descending Cleveland Center
10:27AM 42.4642 -82.6689 242° Southwest 319 367 10,900 -1,440 Descending Cleveland Center
10:28AM 42.4486 -82.7244 249° West 290 334 10,000 -1,440 Descending Cleveland Center
10:28AM 42.4311 -82.7633 239° Southwest 298 343 9,500 -1,320 Descending Cleveland Center
10:29AM 42.4297 -82.8419 269° West 265 305 8,400 -1,320 Descending Cleveland Center
10:29AM 42.4272 -82.8644 261° West 274 315 8,200 -1,320 Descending Cleveland Center
10:30AM 42.4233 -82.9431 266° West 270 311 7,100 -1,140 Descending Cleveland Center
10:31AM 42.4189 -83.0611 267° West 274 315 6,000 -1,080 Descending Cleveland Center
10:32AM 42.4175 -83.1228 268° West 222 255 5,100 -1,020 Descending Cleveland Center
10:32AM 42.4131 -83.1425 253° West 251 289 5,000 -300 Descending Cleveland Center
10:33AM 42.3931 -83.1950 243° Southwest 164 189 4,800 -600 Descending Cleveland Center
10:34AM 42.3589 -83.2303 217° Southwest 171 197 3,900 -900 Descending Cleveland Center